createdAt,value
2022-10-06T00:01:03.722Z,17.00
2022-10-06T00:03:31.010Z,16.90
2022-10-06T00:06:02.257Z,16.80
2022-10-06T00:08:31.540Z,16.80
2022-10-06T00:10:58.354Z,16.70
2022-10-06T00:13:25.759Z,16.60
2022-10-06T00:15:52.524Z,16.60
2022-10-06T00:18:19.288Z,16.50
2022-10-06T00:20:53.841Z,16.50
2022-10-06T00:23:21.027Z,16.50
2022-10-06T00:25:47.722Z,16.40
2022-10-06T00:28:16.725Z,16.40
2022-10-06T00:30:43.890Z,16.40
2022-10-06T00:33:12.949Z,16.30
2022-10-06T00:35:39.584Z,16.20
2022-10-06T00:38:06.208Z,16.20
2022-10-06T00:40:33.384Z,16.20
2022-10-06T00:43:02.684Z,16.20
2022-10-06T00:45:43.152Z,16.20
2022-10-06T00:48:30.940Z,16.20
2022-10-06T00:50:58.803Z,16.10
2022-10-06T00:53:29.722Z,16.00
2022-10-06T00:55:57.251Z,16.00
2022-10-06T00:58:25.100Z,16.00
2022-10-06T01:00:55.840Z,15.90
2022-10-06T01:03:34.538Z,15.90
2022-10-06T01:06:02.144Z,15.80
2022-10-06T01:08:30.425Z,15.80
2022-10-06T01:10:57.380Z,15.80
2022-10-06T01:13:24.942Z,15.70
2022-10-06T01:16:00.122Z,15.70
2022-10-06T01:18:28.785Z,15.60
2022-10-06T01:21:39.952Z,15.50
2022-10-06T01:24:06.782Z,15.50
2022-10-06T01:26:37.137Z,15.40
2022-10-06T01:29:03.976Z,15.30
2022-10-06T01:31:31.002Z,15.20
2022-10-06T01:33:57.851Z,15.20
2022-10-06T01:36:24.655Z,15.10
2022-10-06T01:38:51.328Z,15.00
2022-10-06T01:41:18.070Z,14.90
2022-10-06T01:43:44.778Z,14.90
2022-10-06T01:46:11.517Z,14.80
2022-10-06T01:48:38.204Z,14.80
2022-10-06T01:51:09.193Z,14.70
2022-10-06T01:53:35.931Z,14.60
2022-10-06T01:56:02.535Z,14.60
2022-10-06T01:58:29.592Z,14.50
2022-10-06T02:00:56.373Z,14.50
2022-10-06T02:03:23.063Z,14.50
2022-10-06T02:05:49.779Z,14.50
2022-10-06T02:08:16.424Z,14.50
2022-10-06T02:10:43.014Z,14.50
2022-10-06T02:13:09.630Z,14.40
2022-10-06T02:15:36.329Z,14.40
2022-10-06T02:18:02.994Z,14.40
2022-10-06T02:20:29.629Z,14.40
2022-10-06T02:22:56.236Z,14.40
2022-10-06T02:25:22.870Z,14.30
2022-10-06T02:27:49.479Z,14.30
2022-10-06T02:30:16.279Z,14.30
2022-10-06T02:32:44.005Z,14.30
2022-10-06T02:35:12.736Z,14.30
2022-10-06T02:37:40.997Z,14.30
2022-10-06T02:40:08.801Z,14.30
2022-10-06T02:42:37.171Z,14.30
2022-10-06T02:45:06.644Z,14.30
2022-10-06T02:47:35.203Z,14.20
2022-10-06T02:50:05.272Z,14.20
2022-10-06T02:52:34.583Z,14.20
2022-10-06T02:55:05.492Z,14.20
2022-10-06T02:57:32.111Z,14.20
2022-10-06T02:59:58.855Z,14.20
2022-10-06T03:02:25.593Z,14.20
2022-10-06T03:04:52.376Z,14.10
2022-10-06T03:07:19.105Z,14.10
2022-10-06T03:09:45.711Z,14.10
2022-10-06T03:12:12.383Z,14.10
2022-10-06T03:14:39.646Z,14.00
2022-10-06T03:17:09.432Z,14.10
2022-10-06T03:19:37.303Z,14.10
2022-10-06T03:22:07.684Z,14.00
2022-10-06T03:24:34.980Z,14.00
2022-10-06T03:27:01.668Z,14.00
2022-10-06T03:29:29.084Z,14.00
2022-10-06T03:31:55.677Z,14.00
2022-10-06T03:34:22.336Z,14.00
2022-10-06T03:36:48.924Z,13.90
2022-10-06T03:39:15.561Z,13.90
2022-10-06T03:41:42.243Z,13.90
2022-10-06T03:44:08.898Z,13.90
2022-10-06T03:46:36.386Z,13.90
2022-10-06T03:49:03.966Z,13.90
2022-10-06T03:51:39.536Z,13.80
2022-10-06T03:54:08.973Z,13.80
2022-10-06T03:56:38.068Z,13.80
2022-10-06T03:59:10.973Z,13.70
2022-10-06T04:01:46.351Z,13.70
2022-10-06T04:04:14.301Z,13.70
2022-10-06T04:06:43.475Z,13.60
2022-10-06T04:09:15.366Z,13.60
2022-10-06T04:11:43.880Z,13.60
2022-10-06T04:14:13.075Z,13.60
2022-10-06T04:16:42.884Z,13.60
2022-10-06T04:19:11.912Z,13.50
2022-10-06T04:21:40.435Z,13.50
2022-10-06T04:24:08.431Z,13.50
2022-10-06T04:26:37.781Z,13.50
2022-10-06T04:29:05.172Z,13.40
2022-10-06T04:31:37.095Z,13.40
2022-10-06T04:34:04.981Z,13.40
2022-10-06T04:36:34.726Z,13.40
2022-10-06T04:39:04.211Z,13.40
2022-10-06T04:41:33.951Z,13.30
2022-10-06T04:44:02.049Z,13.30
2022-10-06T04:46:42.548Z,13.30
2022-10-06T04:49:13.337Z,13.20
2022-10-06T04:51:44.741Z,13.20
2022-10-06T04:54:11.382Z,13.10
2022-10-06T04:56:38.169Z,13.10
2022-10-06T04:59:05.018Z,13.10
2022-10-06T05:01:36.378Z,13.10
2022-10-06T05:04:04.943Z,13.10
2022-10-06T05:06:40.864Z,13.00
2022-10-06T05:09:10.417Z,13.00
2022-10-06T05:11:38.067Z,13.00
2022-10-06T05:14:05.072Z,12.90
2022-10-06T05:16:32.214Z,13.00
2022-10-06T05:18:59.201Z,12.90
2022-10-06T05:21:33.174Z,12.90
2022-10-06T05:24:00.143Z,12.90
2022-10-06T05:26:29.053Z,12.80
2022-10-06T05:28:56.199Z,12.80
2022-10-06T05:31:27.155Z,12.80
2022-10-06T05:33:54.913Z,12.70
2022-10-06T05:36:24.012Z,12.70
2022-10-06T05:38:50.673Z,12.70
2022-10-06T05:41:19.587Z,12.70
2022-10-06T05:43:46.936Z,12.70
2022-10-06T05:46:27.984Z,12.60
2022-10-06T05:48:57.099Z,12.60
2022-10-06T05:51:32.546Z,12.60
2022-10-06T05:54:00.300Z,12.60
2022-10-06T05:56:29.048Z,12.60
2022-10-06T05:58:57.342Z,12.60
2022-10-06T06:01:26.676Z,12.60
2022-10-06T06:03:55.978Z,12.50
2022-10-06T06:06:28.265Z,12.50
2022-10-06T06:09:00.410Z,12.50
2022-10-06T06:11:29.096Z,12.50
2022-10-06T06:14:04.387Z,12.50
2022-10-06T06:16:31.330Z,12.50
2022-10-06T06:18:59.183Z,12.50
2022-10-06T06:21:26.403Z,12.50
2022-10-06T06:23:53.407Z,12.50
2022-10-06T06:26:28.891Z,12.40
2022-10-06T06:29:02.479Z,12.50
2022-10-06T06:31:31.383Z,12.50
2022-10-06T06:34:00.307Z,12.50
2022-10-06T06:36:40.848Z,12.50
2022-10-06T06:39:10.090Z,12.50
2022-10-06T06:41:39.342Z,12.50
2022-10-06T06:44:11.462Z,12.50
2022-10-06T06:46:39.335Z,12.40
2022-10-06T06:49:07.006Z,12.50
2022-10-06T06:51:35.508Z,12.50
2022-10-06T06:54:02.577Z,12.50
2022-10-06T06:56:34.790Z,12.50
2022-10-06T06:59:10.447Z,12.50
2022-10-06T07:01:38.801Z,12.50
2022-10-06T07:04:06.226Z,12.50
2022-10-06T07:06:33.242Z,12.60
2022-10-06T07:09:00.162Z,12.60
2022-10-06T07:11:32.926Z,12.60
2022-10-06T07:14:01.979Z,12.60
2022-10-06T07:16:48.840Z,12.60
2022-10-06T07:19:35.148Z,12.60
2022-10-06T07:22:22.093Z,12.70
2022-10-06T07:25:07.088Z,12.70
2022-10-06T07:27:47.367Z,12.70
2022-10-06T07:30:19.326Z,12.70
2022-10-06T07:32:47.184Z,12.70
2022-10-06T07:35:16.153Z,12.70
2022-10-06T07:37:43.611Z,12.70
2022-10-06T07:40:10.859Z,12.70
2022-10-06T07:42:48.443Z,12.70
2022-10-06T07:45:39.518Z,12.70
2022-10-06T07:48:10.805Z,12.70
2022-10-06T07:50:41.774Z,12.70
2022-10-06T07:53:11.071Z,12.70
2022-10-06T07:55:45.236Z,12.70
2022-10-06T07:58:18.293Z,12.70
2022-10-06T08:00:46.316Z,12.70
2022-10-06T08:03:17.802Z,12.70
2022-10-06T08:05:49.132Z,12.70
2022-10-06T08:08:16.732Z,12.70
2022-10-06T08:10:43.857Z,12.80
2022-10-06T08:13:10.494Z,12.80
2022-10-06T08:15:37.411Z,12.80
2022-10-06T08:18:16.569Z,12.80
2022-10-06T08:20:51.456Z,12.80
2022-10-06T08:23:18.127Z,12.70
2022-10-06T08:25:54.360Z,12.80
2022-10-06T08:28:22.436Z,12.80
2022-10-06T08:30:52.393Z,12.80
2022-10-06T08:33:21.457Z,12.80
2022-10-06T08:35:48.366Z,12.80
2022-10-06T08:38:15.002Z,12.80
2022-10-06T08:40:43.851Z,12.80
2022-10-06T08:43:16.556Z,12.80
2022-10-06T08:45:46.464Z,12.90
2022-10-06T08:48:17.823Z,12.90
2022-10-06T08:51:09.298Z,12.90
2022-10-06T08:53:47.049Z,13.00
2022-10-06T08:56:44.879Z,13.00
2022-10-06T08:59:12.029Z,13.10
2022-10-06T09:01:51.328Z,13.10
2022-10-06T09:04:29.738Z,13.10
2022-10-06T09:07:00.311Z,13.20
2022-10-06T09:09:46.553Z,13.20
2022-10-06T09:12:43.955Z,13.30
2022-10-06T09:15:39.741Z,13.20
2022-10-06T09:18:56.162Z,13.30
2022-10-06T09:21:23.316Z,13.30
2022-10-06T09:23:56.893Z,13.30
2022-10-06T09:26:29.315Z,13.40
2022-10-06T09:28:57.419Z,13.40
2022-10-06T09:31:42.392Z,13.50
2022-10-06T09:34:28.539Z,13.50
2022-10-06T09:37:03.788Z,13.60
2022-10-06T09:39:36.179Z,13.80
2022-10-06T09:42:11.265Z,13.90
2022-10-06T09:44:50.885Z,14.00
2022-10-06T09:47:32.243Z,14.10
2022-10-06T09:50:12.028Z,14.20
2022-10-06T09:52:40.227Z,14.40
2022-10-06T09:55:15.729Z,14.50
2022-10-06T09:57:53.567Z,14.60
2022-10-06T10:00:35.831Z,14.80
2022-10-06T10:03:08.490Z,15.00
2022-10-06T10:05:38.339Z,15.10
2022-10-06T10:08:09.909Z,15.30
2022-10-06T10:10:37.618Z,15.40
2022-10-06T10:13:17.687Z,15.50
2022-10-06T10:15:56.863Z,15.60
2022-10-06T10:18:30.305Z,15.80
2022-10-06T10:21:05.073Z,15.90
2022-10-06T10:23:36.259Z,16.10
2022-10-06T10:26:26.920Z,16.20
2022-10-06T10:29:32.820Z,16.30
2022-10-06T10:32:44.145Z,16.50
2022-10-06T10:35:34.215Z,16.60
2022-10-06T10:38:07.606Z,16.70
2022-10-06T10:40:40.505Z,16.80
2022-10-06T10:43:18.660Z,16.90
2022-10-06T10:45:50.193Z,17.00
2022-10-06T10:48:30.482Z,16.90
2022-10-06T10:51:21.503Z,16.90
2022-10-06T10:54:00.419Z,16.90
2022-10-06T10:56:27.471Z,17.00
2022-10-06T10:59:10.915Z,17.10
2022-10-06T11:01:59.472Z,17.20
2022-10-06T11:04:26.417Z,17.20
2022-10-06T11:07:06.271Z,17.20
2022-10-06T11:09:35.626Z,17.00
2022-10-06T11:12:19.842Z,17.00
2022-10-06T11:14:59.517Z,17.00
2022-10-06T11:17:44.180Z,17.00
2022-10-06T11:20:38.709Z,17.10
2022-10-06T11:23:22.339Z,17.20
2022-10-06T11:26:20.024Z,17.40
2022-10-06T11:29:06.121Z,17.20
2022-10-06T11:31:51.432Z,17.20
2022-10-06T11:34:18.371Z,17.30
2022-10-06T11:37:00.387Z,17.30
2022-10-06T11:39:42.480Z,17.50
2022-10-06T11:42:20.362Z,17.70
2022-10-06T11:44:59.743Z,17.80
2022-10-06T11:47:50.697Z,18.00
2022-10-06T11:50:41.784Z,18.20
2022-10-06T11:53:37.704Z,18.40
2022-10-06T11:56:35.133Z,18.60
2022-10-06T11:59:26.262Z,18.80
2022-10-06T12:01:54.017Z,18.90
2022-10-06T12:04:24.540Z,19.00
2022-10-06T12:06:54.637Z,19.10
2022-10-06T12:09:24.182Z,19.20
2022-10-06T12:11:52.603Z,19.40
2022-10-06T12:17:40.110Z,19.50
2022-10-06T12:20:23.126Z,19.40
2022-10-06T12:22:56.194Z,19.40
2022-10-06T12:25:26.724Z,19.60
2022-10-06T12:28:12.130Z,19.70
2022-10-06T12:31:18.391Z,20.10
2022-10-06T12:33:46.109Z,20.20
2022-10-06T12:36:32.358Z,20.40
2022-10-06T12:39:05.076Z,20.70
2022-10-06T12:41:58.559Z,20.70
2022-10-06T12:44:30.618Z,20.80
2022-10-06T12:47:02.892Z,20.80
2022-10-06T12:49:41.554Z,20.90
2022-10-06T12:52:18.668Z,21.00
2022-10-06T12:55:11.244Z,21.00
2022-10-06T12:57:53.298Z,21.10
2022-10-06T13:00:40.711Z,21.10
2022-10-06T13:03:15.233Z,21.00
2022-10-06T13:05:47.864Z,21.00
2022-10-06T13:08:30.137Z,21.10
2022-10-06T13:11:22.255Z,21.20
2022-10-06T13:14:16.641Z,21.40
2022-10-06T13:16:46.294Z,21.40
2022-10-06T13:19:22.135Z,21.70
2022-10-06T13:21:49.015Z,21.70
2022-10-06T13:24:20.410Z,21.60
2022-10-06T13:26:48.043Z,21.50
2022-10-06T13:29:18.896Z,21.40
2022-10-06T13:31:51.892Z,21.40
2022-10-06T13:34:26.822Z,21.40
2022-10-06T13:36:53.741Z,21.40
2022-10-06T13:39:26.849Z,21.40
2022-10-06T13:42:08.331Z,21.40
2022-10-06T13:44:42.680Z,21.60
2022-10-06T13:47:18.334Z,21.70
2022-10-06T13:50:19.428Z,21.70
2022-10-06T13:52:48.796Z,21.80
2022-10-06T13:55:25.528Z,21.90
2022-10-06T13:58:09.357Z,21.90
2022-10-06T14:01:01.303Z,21.90
2022-10-06T14:03:29.150Z,21.80
2022-10-06T14:06:11.080Z,21.80
2022-10-06T14:08:38.248Z,21.80
2022-10-06T14:11:08.872Z,21.80
2022-10-06T14:14:01.163Z,21.80
2022-10-06T14:16:29.433Z,21.90
2022-10-06T14:19:06.386Z,22.00
2022-10-06T14:21:36.588Z,21.90
2022-10-06T14:24:27.090Z,22.00
2022-10-06T14:26:54.953Z,21.80
2022-10-06T14:29:22.653Z,21.80
2022-10-06T14:31:49.837Z,21.80
2022-10-06T14:34:18.777Z,21.90
2022-10-06T14:36:47.748Z,22.00
2022-10-06T14:39:15.631Z,22.00
2022-10-06T14:41:42.587Z,22.10
2022-10-06T14:44:12.282Z,22.10
2022-10-06T14:46:41.362Z,22.20
2022-10-06T14:49:10.147Z,22.20
2022-10-06T14:51:37.884Z,22.20
2022-10-06T14:54:06.150Z,22.20
2022-10-06T14:56:34.663Z,22.30
2022-10-06T14:59:05.739Z,22.30
2022-10-06T15:01:35.485Z,22.20
2022-10-06T15:04:13.575Z,22.10
2022-10-06T15:06:59.167Z,21.90
2022-10-06T15:09:26.264Z,21.90
2022-10-06T15:11:54.098Z,21.70
2022-10-06T15:14:24.099Z,21.70
2022-10-06T15:16:51.397Z,21.70
2022-10-06T15:19:18.157Z,21.80
2022-10-06T15:21:45.357Z,21.80
2022-10-06T15:24:17.750Z,21.80
2022-10-06T15:27:04.271Z,21.80
2022-10-06T15:29:31.782Z,21.80
2022-10-06T15:32:00.155Z,21.70
2022-10-06T15:34:28.874Z,21.60
2022-10-06T15:36:57.699Z,21.60
2022-10-06T15:39:26.997Z,21.60
2022-10-06T15:41:53.787Z,21.60
2022-10-06T15:44:21.441Z,21.50
2022-10-06T15:46:57.618Z,21.50
2022-10-06T15:49:26.413Z,21.50
2022-10-06T15:51:59.309Z,21.50
2022-10-06T15:54:31.204Z,21.40
2022-10-06T15:56:59.444Z,21.40
2022-10-06T15:59:28.079Z,21.50
2022-10-06T16:01:57.300Z,21.40
2022-10-06T16:04:35.439Z,21.40
2022-10-06T16:07:03.967Z,21.60
2022-10-06T16:09:33.072Z,21.50
2022-10-06T16:12:02.484Z,21.50
2022-10-06T16:14:29.861Z,21.40
2022-10-06T16:16:59.768Z,21.40
2022-10-06T16:19:28.078Z,21.30
2022-10-06T16:21:58.890Z,21.30
2022-10-06T16:24:26.640Z,21.20
2022-10-06T16:26:53.919Z,21.10
2022-10-06T16:29:21.722Z,21.00
2022-10-06T16:31:48.843Z,20.90
2022-10-06T16:34:16.146Z,21.00
2022-10-06T16:36:42.912Z,21.00
2022-10-06T16:39:15.285Z,21.00
2022-10-06T16:41:42.250Z,21.00
2022-10-06T16:44:08.995Z,21.00
2022-10-06T16:46:35.840Z,21.00
2022-10-06T16:49:03.976Z,20.90
2022-10-06T16:51:33.053Z,20.80
2022-10-06T16:54:05.297Z,20.70
2022-10-06T16:56:34.390Z,20.50
2022-10-06T16:59:10.558Z,20.40
2022-10-06T17:01:37.747Z,20.30
2022-10-06T17:04:09.382Z,20.10
2022-10-06T17:06:39.073Z,20.00
2022-10-06T17:09:11.224Z,19.80
2022-10-06T17:11:38.450Z,19.70
2022-10-06T17:14:08.247Z,19.60
2022-10-06T17:16:38.756Z,19.50
2022-10-06T17:19:06.456Z,19.30
2022-10-06T17:21:45.679Z,19.20
2022-10-06T17:24:14.328Z,18.90
2022-10-06T17:26:43.072Z,18.80
2022-10-06T17:29:18.973Z,18.60
2022-10-06T17:31:47.118Z,18.50
2022-10-06T17:34:20.424Z,18.40
2022-10-06T17:36:49.070Z,18.20
2022-10-06T17:39:18.178Z,18.10
2022-10-06T17:41:46.526Z,17.90
2022-10-06T17:44:22.547Z,17.80
2022-10-06T17:46:51.780Z,17.70
2022-10-06T17:49:20.628Z,17.50
2022-10-06T17:51:48.364Z,17.40
2022-10-06T17:54:19.115Z,17.30
2022-10-06T17:56:48.229Z,17.10
2022-10-06T17:59:21.971Z,16.90
2022-10-06T18:01:51.047Z,16.70
2022-10-06T18:04:18.579Z,16.60
2022-10-06T18:06:46.421Z,16.50
2022-10-06T18:09:14.629Z,16.40
2022-10-06T18:11:43.930Z,16.30
2022-10-06T18:14:13.062Z,16.20
2022-10-06T18:16:58.357Z,16.10
2022-10-06T18:19:33.543Z,16.00
2022-10-06T18:22:10.610Z,15.80
2022-10-06T18:24:38.240Z,15.60
2022-10-06T18:27:06.244Z,15.50
2022-10-06T18:29:34.777Z,15.30
2022-10-06T18:37:36.559Z,15.10
2022-10-06T18:40:06.460Z,14.90
2022-10-06T18:42:33.649Z,14.80
2022-10-06T18:45:19.030Z,14.70
2022-10-06T18:48:04.343Z,14.60
2022-10-06T18:50:32.089Z,14.50
2022-10-06T18:52:58.704Z,14.40
2022-10-06T18:55:26.397Z,14.30
2022-10-06T18:57:53.393Z,14.20
2022-10-06T19:00:20.168Z,14.10
2022-10-06T19:02:49.439Z,14.00
2022-10-06T19:05:17.362Z,13.90
2022-10-06T19:07:44.823Z,13.80
2022-10-06T19:10:11.943Z,13.70
2022-10-06T19:12:38.949Z,13.60
2022-10-06T19:15:06.065Z,13.50
2022-10-06T19:17:32.722Z,13.40
2022-10-06T19:19:59.420Z,13.30
2022-10-06T19:22:26.201Z,13.10
2022-10-06T19:24:52.997Z,13.10
2022-10-06T19:27:24.182Z,13.00
2022-10-06T19:29:54.182Z,12.90
2022-10-06T19:32:27.567Z,12.80
2022-10-06T19:34:58.915Z,12.70
2022-10-06T19:37:28.581Z,12.60
2022-10-06T19:39:55.229Z,12.50
2022-10-06T19:42:40.849Z,12.50
2022-10-06T19:45:08.485Z,12.40
2022-10-06T19:47:35.384Z,12.30
2022-10-06T19:50:08.702Z,12.20
2022-10-06T19:52:37.573Z,12.10
2022-10-06T19:55:07.148Z,12.10
2022-10-06T19:57:33.870Z,11.90
2022-10-06T20:00:00.770Z,11.90
2022-10-06T20:02:28.698Z,11.80
2022-10-06T20:04:55.652Z,11.70
2022-10-06T20:07:25.438Z,11.70
2022-10-06T20:09:52.087Z,11.60
2022-10-06T20:12:23.764Z,11.50
2022-10-06T20:14:53.159Z,11.40
2022-10-06T20:17:20.734Z,11.30
2022-10-06T20:19:47.460Z,11.20
2022-10-06T20:22:15.032Z,11.20
2022-10-06T20:24:41.692Z,11.10
2022-10-06T20:27:08.856Z,11.10
2022-10-06T20:29:36.029Z,11.00
2022-10-06T20:32:05.510Z,10.90
2022-10-06T20:34:32.809Z,10.90
2022-10-06T20:37:02.876Z,10.70
2022-10-06T20:39:50.960Z,10.70
2022-10-06T20:42:19.595Z,10.60
2022-10-06T20:44:46.840Z,10.60
2022-10-06T20:47:14.063Z,10.50
2022-10-06T20:49:42.315Z,10.50
2022-10-06T20:52:09.715Z,10.40
2022-10-06T20:54:37.083Z,10.30
2022-10-06T20:57:06.696Z,10.20
2022-10-06T20:59:35.521Z,10.20
2022-10-06T21:02:03.222Z,10.10
2022-10-06T21:04:30.326Z,10.00
2022-10-06T21:06:57.146Z,9.90
2022-10-06T21:09:24.469Z,9.90
2022-10-06T21:11:51.490Z,9.80
2022-10-06T21:14:18.689Z,9.80
2022-10-06T21:16:46.703Z,9.70
2022-10-06T21:19:16.075Z,9.60
2022-10-06T21:21:49.763Z,9.60
2022-10-06T21:24:16.794Z,9.50
2022-10-06T21:26:43.670Z,9.50
2022-10-06T21:29:15.386Z,9.40
2022-10-06T21:31:43.101Z,9.40
2022-10-06T21:34:10.459Z,9.30
2022-10-06T21:36:38.086Z,9.30
2022-10-06T21:39:05.748Z,9.20
2022-10-06T21:41:41.237Z,9.10
2022-10-06T21:44:13.173Z,9.10
2022-10-06T21:46:48.177Z,9.00
2022-10-06T21:49:17.746Z,8.90
2022-10-06T21:51:46.489Z,8.90
2022-10-06T21:54:13.108Z,8.80
2022-10-06T21:56:40.403Z,8.80
2022-10-06T21:59:07.486Z,8.70
2022-10-06T22:01:37.031Z,8.70
2022-10-06T22:04:04.421Z,8.60
2022-10-06T22:06:33.310Z,8.60
2022-10-06T22:09:01.208Z,8.50
2022-10-06T22:11:30.731Z,8.50
2022-10-06T22:13:59.796Z,8.40
2022-10-06T22:16:29.162Z,8.40
2022-10-06T22:18:56.008Z,8.30
2022-10-06T22:21:24.963Z,8.30
2022-10-06T22:23:59.929Z,8.20
2022-10-06T22:26:28.324Z,8.20
2022-10-06T22:28:58.099Z,8.10
2022-10-06T22:31:26.679Z,8.10
2022-10-06T22:34:02.866Z,8.00
2022-10-06T22:36:29.555Z,8.00
2022-10-06T22:38:57.060Z,7.90
2022-10-06T22:41:24.006Z,7.90
2022-10-06T22:43:57.113Z,7.80
2022-10-06T22:46:25.508Z,7.80
2022-10-06T22:48:52.516Z,7.70
2022-10-06T22:51:19.162Z,7.70
2022-10-06T22:53:45.826Z,7.60
2022-10-06T22:56:12.861Z,7.60
2022-10-06T22:58:39.485Z,7.50
2022-10-06T23:01:10.941Z,7.50
2022-10-06T23:03:38.869Z,7.40
2022-10-06T23:06:06.332Z,7.30
2022-10-06T23:08:35.325Z,7.30
2022-10-06T23:11:10.486Z,7.30
2022-10-06T23:13:37.122Z,7.20
2022-10-06T23:16:07.801Z,7.20
2022-10-06T23:18:36.951Z,7.10
2022-10-06T23:21:17.371Z,7.10
2022-10-06T23:23:44.048Z,7.10
2022-10-06T23:26:13.371Z,7.00
2022-10-06T23:28:40.440Z,7.00
2022-10-06T23:31:08.574Z,6.90
2022-10-06T23:33:35.634Z,6.90
2022-10-06T23:36:07.929Z,6.80
2022-10-06T23:38:36.001Z,6.80
2022-10-06T23:41:03.099Z,6.80
2022-10-06T23:43:29.773Z,6.80
2022-10-06T23:45:56.935Z,6.70
2022-10-06T23:48:24.077Z,6.70
2022-10-06T23:51:05.407Z,6.70
2022-10-06T23:53:33.069Z,6.60
2022-10-06T23:55:59.704Z,6.50
2022-10-06T23:58:26.954Z,6.50
